Time;durP1;ratioP1;P1;durP2;ratioP2;P2;SDS_P1;SDS_P2;PMS_P1;PMS_P2;Temp;Humidity;BMP_temperature;BMP_pressure;BME280_temperature;BME280_humidity;BME280_pressure;Samples;Min_cycle;Max_cycle;Signal;HPM_P1;HPM_P2
2022/12/06 00:02:12;;;;;;;100.40;52.70;;;;;;;3.25;98.95;98528.44;103084;1298;22489;-76
2022/12/06 00:04:39;;;;;;;91.90;51.10;;;;;;;3.21;98.47;98528.33;103242;1303;138515;-75
2022/12/06 00:07:06;;;;;;;94.40;52.20;;;;;;;3.18;98.37;98526.39;103434;1295;22587;-76
2022/12/06 00:09:33;;;;;;;91.70;52.00;;;;;;;3.14;98.45;98523.98;103314;1288;22508;-76
2022/12/06 00:12:00;;;;;;;92.90;48.90;;;;;;;3.13;98.59;98519.48;103136;1312;138793;-76
2022/12/06 00:14:27;;;;;;;95.50;51.60;;;;;;;3.12;98.73;98515.52;103147;1313;24519;-76
2022/12/06 00:16:54;;;;;;;92.70;50.30;;;;;;;3.12;98.91;98514.05;103028;1295;138852;-76
2022/12/06 00:19:22;;;;;;;87.50;48.50;;;;;;;3.11;98.88;98504.83;103270;1287;25255;-76
2022/12/06 00:21:49;;;;;;;89.10;50.30;;;;;;;3.11;98.94;98503.08;103632;1298;22474;-76
2022/12/06 00:24:20;;;;;;;83.20;49.10;;;;;;;3.11;98.89;98504.83;103271;1286;138333;-76
2022/12/06 00:26:48;;;;;;;89.90;50.40;;;;;;;3.13;99.37;98505.52;103468;1288;22688;-76
2022/12/06 00:29:19;;;;;;;89.00;50.70;;;;;;;3.15;99.63;98505.39;103517;1284;138102;-76
2022/12/06 00:31:47;;;;;;;82.90;48.20;;;;;;;3.17;99.56;98498.19;103252;1303;25321;-76
2022/12/06 00:34:14;;;;;;;85.30;46.10;;;;;;;3.18;99.48;98496.76;103927;1286;22547;-76
2022/12/06 00:36:42;;;;;;;90.40;49.70;;;;;;;3.18;99.26;98497.13;102950;1288;138052;-76
2022/12/06 00:39:12;;;;;;;88.00;47.00;;;;;;;3.18;99.29;98492.98;103031;1297;23854;-76
2022/12/06 00:41:39;;;;;;;80.30;45.30;;;;;;;3.18;99.31;98490.26;102933;1298;138353;-76
2022/12/06 00:44:06;;;;;;;88.50;48.60;;;;;;;3.18;99.42;98490.26;103085;1306;24400;-75
2022/12/06 00:46:35;;;;;;;83.90;45.00;;;;;;;3.19;99.54;98481.24;102923;1286;138786;-76
2022/12/06 00:49:04;;;;;;;79.60;44.10;;;;;;;3.19;99.36;98477.89;103017;1295;24246;-76
2022/12/06 00:51:31;;;;;;;;;;;;;;;3.18;99.53;98491.61;103226;1294;25420;-76
2022/12/06 00:53:58;;;;;;;79.30;42.50;;;;;;;3.19;99.88;98502.80;102978;1286;124523;-76
2022/12/06 00:56:25;;;;;;;77.00;43.00;;;;;;;3.19;99.76;98504.09;103011;1288;24327;-76
2022/12/06 00:58:52;;;;;;;80.20;44.50;;;;;;;3.19;99.93;98500.95;103320;1294;140157;-76
2022/12/06 01:01:32;;;;;;;90.00;48.40;;;;;;;3.20;99.95;98496.52;103040;1308;25402;-76
2022/12/06 01:04:02;;;;;;;88.30;46.20;;;;;;;3.20;99.93;98487.40;103035;1290;22509;-76
2022/12/06 01:06:33;;;;;;;81.40;45.00;;;;;;;3.20;99.89;98486.24;102908;1303;138043;-76
2022/12/06 01:09:04;;;;;;;83.20;46.40;;;;;;;3.20;99.95;98479.80;103292;1308;24248;-76
2022/12/06 01:11:31;;;;;;;83.90;45.50;;;;;;;3.22;100.00;98480.50;103049;1301;139469;-76
2022/12/06 01:13:59;;;;;;;83.90;47.00;;;;;;;3.23;99.96;98472.56;103189;1286;22624;-76
2022/12/06 01:16:29;;;;;;;78.70;44.10;;;;;;;3.24;99.96;98473.41;103168;1298;138404;-76
2022/12/06 01:19:01;;;;;;;81.70;45.40;;;;;;;3.26;99.99;98472.60;103193;1288;25280;-77
2022/12/06 01:21:29;;;;;;;75.80;44.40;;;;;;;3.29;99.95;98472.31;103130;1297;24192;-77
2022/12/06 01:23:56;;;;;;;82.80;46.50;;;;;;;3.31;100.00;98473.04;102934;1313;138329;-77
2022/12/06 01:26:28;;;;;;;85.30;46.80;;;;;;;3.32;100.00;98469.30;103054;1303;22472;-77
2022/12/06 01:28:56;;;;;;;77.20;43.10;;;;;;;3.32;99.85;98470.76;102991;1295;138594;-77
2022/12/06 01:31:23;;;;;;;77.80;43.40;;;;;;;3.33;99.99;98459.34;102966;1296;22170;-76
2022/12/06 01:33:50;;;;;;;85.50;45.80;;;;;;;3.35;100.00;98452.89;103030;1302;22475;-77
2022/12/06 01:36:17;;;;;;;83.70;44.60;;;;;;;3.34;100.00;98440.54;102921;1310;138699;-76
2022/12/06 01:38:48;;;;;;;77.30;43.10;;;;;;;3.32;99.75;98433.79;103070;1310;24273;-77
2022/12/06 01:41:16;;;;;;;65.20;39.60;;;;;;;3.31;99.77;98429.64;103081;1286;138250;-77
2022/12/06 01:43:44;;;;;;;73.80;40.90;;;;;;;3.30;99.74;98426.98;103222;1302;24400;-76
2022/12/06 01:46:21;;;;;;;65.20;37.70;;;;;;;3.27;99.60;98426.80;103196;1285;24386;-76
2022/12/06 01:48:51;;;;;;;66.70;37.10;;;;;;;3.27;99.82;98424.48;103154;1301;23086;-77
2022/12/06 01:51:19;;;;;;;70.60;40.70;;;;;;;3.26;99.89;98421.73;103077;1310;24281;-76
2022/12/06 01:53:49;;;;;;;70.30;39.00;;;;;;;3.28;100.00;98423.49;103295;1285;138673;-76
2022/12/06 01:56:17;;;;;;;73.40;40.90;;;;;;;3.29;100.00;98424.54;103158;1286;22945;-76
2022/12/06 01:58:47;;;;;;;71.50;39.70;;;;;;;3.31;100.00;98420.41;103040;1304;138934;-76
2022/12/06 02:01:14;;;;;;;76.70;42.60;;;;;;;3.32;100.00;98421.40;103301;1310;25674;-76
2022/12/06 02:03:43;;;;;;;73.30;42.50;;;;;;;3.35;100.00;98419.67;103099;1307;22487;-76
2022/12/06 02:06:10;;;;;;;76.10;42.40;;;;;;;3.35;100.00;98415.24;103499;1291;139240;-77
2022/12/06 02:08:38;;;;;;;73.00;42.50;;;;;;;3.35;99.99;98413.26;103188;1285;23532;-76
2022/12/06 02:11:05;;;;;;;76.60;40.70;;;;;;;3.36;100.00;98411.64;103114;1293;138887;-76
2022/12/06 02:13:34;;;;;;;66.70;38.80;;;;;;;3.35;99.97;98403.08;103104;1296;26044;-76
2022/12/06 02:16:10;;;;;;;74.20;40.70;;;;;;;3.36;99.98;98398.98;103165;1296;22863;-76
2022/12/06 02:18:48;;;;;;;78.00;41.50;;;;;;;3.35;99.94;98395.16;103056;1295;138767;-76
2022/12/06 02:21:30;;;;;;;75.90;41.40;;;;;;;3.34;99.93;98377.80;103349;1309;25172;-75
2022/12/06 02:24:29;;;;;;;77.70;41.80;;;;;;;3.33;99.94;98373.38;103037;1285;138335;-75
2022/12/06 02:27:28;;;;;;;73.50;40.50;;;;;;;3.32;100.00;98369.60;103216;1294;23209;-75
2022/12/06 02:29:58;;;;;;;74.70;40.00;;;;;;;3.30;99.94;98365.00;103169;1310;139467;-75
2022/12/06 02:32:34;;;;;;;76.20;41.80;;;;;;;3.29;99.96;98368.67;103127;1302;25725;-75
2022/12/06 02:35:18;;;;;;;71.70;39.90;;;;;;;3.28;99.94;98363.17;102938;1292;138533;-75
2022/12/06 02:37:51;;;;;;;71.70;38.10;;;;;;;3.26;99.80;98366.88;103027;1285;22590;-75
2022/12/06 02:40:27;;;;;;;71.10;38.60;;;;;;;3.24;99.85;98362.91;103249;1293;22610;-75
2022/12/06 02:43:00;;;;;;;72.90;38.50;;;;;;;3.21;99.87;98357.58;102986;1313;22609;-75
2022/12/06 02:45:34;;;;;;;76.60;40.70;;;;;;;3.20;99.95;98354.10;103155;1301;26135;-75
2022/12/06 02:48:03;;;;;;;70.50;38.90;;;;;;;3.19;100.00;98348.89;102985;1304;138302;-76
2022/12/06 02:50:36;;;;;;;68.70;38.60;;;;;;;3.18;99.85;98348.98;103142;1303;22490;-76
2022/12/06 02:53:07;;;;;;;67.70;39.00;;;;;;;3.16;99.94;98344.70;103206;1285;138512;-76
2022/12/06 02:55:35;;;;;;;74.20;38.30;;;;;;;3.15;99.88;98337.70;103089;1313;22484;-76
2022/12/06 02:58:01;;;;;;;65.70;36.10;;;;;;;3.14;99.87;98333.91;103077;1310;22597;-76
2022/12/06 03:00:34;;;;;;;67.30;35.50;;;;;;;3.13;99.99;98325.76;102993;1308;138343;-76
2022/12/06 03:03:07;;;;;;;71.10;38.80;;;;;;;3.12;99.99;98317.56;103325;1296;22471;-76
2022/12/06 03:05:54;;;;;;;69.90;38.00;;;;;;;3.11;100.00;98314.75;103095;1304;138246;-76
2022/12/06 03:08:49;;;;;;;71.10;37.60;;;;;;;3.10;99.99;98309.36;103171;1290;22669;-76
2022/12/06 03:11:17;;;;;;;73.50;38.40;;;;;;;3.08;100.00;98306.50;103073;1310;138903;-76
2022/12/06 03:14:03;;;;;;;66.90;37.80;;;;;;;3.07;99.99;98312.20;103214;1300;22538;-76
2022/12/06 03:16:41;;;;;;;67.40;38.10;;;;;;;3.06;100.00;98314.09;102904;1292;138417;-76
2022/12/06 03:19:19;;;;;;;68.50;36.00;;;;;;;3.07;100.00;98318.70;103323;1292;24333;-76
2022/12/06 03:21:49;;;;;;;67.80;35.40;;;;;;;3.06;100.00;98316.34;103226;1309;22477;-76
2022/12/06 03:24:19;;;;;;;63.80;36.10;;;;;;;3.04;100.00;98309.74;102884;1313;138518;-77
2022/12/06 03:26:48;;;;;;;68.10;36.50;;;;;;;3.03;100.00;98312.40;103008;1308;22480;-76
2022/12/06 03:29:19;;;;;;;66.90;35.60;;;;;;;3.03;100.00;98313.92;102954;1309;138499;-77
2022/12/06 03:31:48;;;;;;;61.50;31.70;;;;;;;3.04;100.00;98305.19;103244;1310;22477;-76
2022/12/06 03:34:25;;;;;;;59.90;34.70;;;;;;;3.04;100.00;98299.73;103740;1304;24425;-76
2022/12/06 03:36:52;;;;;;;67.50;36.00;;;;;;;3.02;100.00;98301.21;103213;1306;139656;-77
2022/12/06 03:39:47;;;;;;;62.30;35.90;;;;;;;3.02;100.00;98310.70;102944;1301;22493;-76
2022/12/06 03:42:15;;;;;;;63.30;35.00;;;;;;;3.03;100.00;98312.19;102862;1299;138572;-76
2022/12/06 03:44:42;;;;;;;63.80;34.20;;;;;;;3.03;100.00;98306.23;103035;1298;22614;-76
2022/12/06 03:47:57;;;;;;;67.90;36.20;;;;;;;3.04;100.00;98303.83;102993;1301;138604;-76
2022/12/06 03:50:35;;;;;;;61.50;33.70;;;;;;;3.03;100.00;98291.77;102450;1317;24047;-76
2022/12/06 03:53:02;;;;;;;67.30;36.20;;;;;;;3.02;100.00;98282.34;102608;1307;138680;-76
2022/12/06 03:55:29;;;;;;;61.60;32.90;;;;;;;3.02;100.00;98274.10;102342;1307;24731;-76
2022/12/06 03:57:56;;;;;;;58.60;31.90;;;;;;;3.01;100.00;98276.71;102350;1314;25436;-76
2022/12/06 04:00:23;;;;;;;55.60;31.20;;;;;;;3.02;100.00;98286.10;102124;1300;138604;-76
2022/12/06 04:02:50;;;;;;;53.20;28.40;;;;;;;3.00;100.00;98285.51;102421;1319;22692;-76
2022/12/06 04:05:17;;;;;;;49.50;28.60;;;;;;;2.98;100.00;98286.86;102189;1318;139014;-76
2022/12/06 04:07:44;;;;;;;48.50;26.60;;;;;;;2.94;100.00;98281.07;102241;1303;25467;-76
2022/12/06 04:10:11;;;;;;;50.20;29.30;;;;;;;2.91;100.00;98273.35;102348;1300;25323;-76
2022/12/06 04:15:23;;;;;;;56.20;31.20;;;;;;;2.87;100.00;98271.05;102702;1303;25353;-76
2022/12/06 04:23:29;;;;;;;58.40;30.30;;;;;;;2.76;100.00;98266.50;102309;1310;138685;-76
2022/12/06 04:25:56;;;;;;;56.80;30.70;;;;;;;2.75;100.00;98262.40;102504;1295;23824;-76
2022/12/06 04:39:26;;;;;;;54.00;28.40;;;;;;;2.67;100.00;98251.07;103114;1294;22993;-76
2022/12/06 04:44:39;;;;;;;58.90;27.00;;;;;;;2.67;100.00;98257.18;103039;1312;24253;-77
2022/12/06 04:47:07;;;;;;;57.70;29.80;;;;;;;2.66;100.00;98250.33;103030;1288;139158;-76
2022/12/06 04:49:35;;;;;;;63.10;30.40;;;;;;;2.64;100.00;98252.35;103025;1302;22486;-76
2022/12/06 04:52:03;;;;;;;54.10;29.20;;;;;;;2.62;100.00;98258.83;103149;1310;24364;-76
2022/12/06 04:54:30;;;;;;;59.70;31.00;;;;;;;2.63;100.00;98265.16;103020;1310;138588;-77
2022/12/06 04:56:58;;;;;;;58.40;29.80;;;;;;;2.63;100.00;98261.73;103192;1287;24338;-76
2022/12/06 04:59:26;;;;;;;58.10;28.30;;;;;;;2.63;100.00;98257.13;103322;1294;139555;-76
2022/12/06 05:01:53;;;;;;;58.90;28.20;;;;;;;2.63;100.00;98250.14;103662;1288;22505;-77
2022/12/06 05:04:21;;;;;;;58.40;30.00;;;;;;;2.61;100.00;98247.48;103371;1301;25715;-76
2022/12/06 05:06:48;;;;;;;53.10;26.60;;;;;;;2.60;100.00;98251.55;103000;1300;138501;-76
2022/12/06 05:09:14;;;;;;;47.50;27.10;;;;;;;2.61;100.00;98256.16;103163;1302;22474;-76
2022/12/06 05:11:41;;;;;;;55.40;27.60;;;;;;;2.60;100.00;98249.13;102998;1300;138425;-76
2022/12/06 05:14:08;;;;;;;59.00;29.50;;;;;;;2.58;100.00;98244.48;103328;1302;22470;-77
2022/12/06 05:16:35;;;;;;;53.70;27.20;;;;;;;2.59;100.00;98239.20;103155;1287;23210;-76
2022/12/06 05:19:02;;;;;;;58.40;28.20;;;;;;;2.61;100.00;98235.90;103130;1295;22649;-76
2022/12/06 05:21:30;;;;;;;54.30;28.00;;;;;;;2.59;100.00;98233.76;103109;1305;23258;-76
2022/12/06 05:23:57;;;;;;;56.50;27.90;;;;;;;2.56;100.00;98235.46;103142;1285;139641;-76
2022/12/06 05:26:26;;;;;;;56.70;28.70;;;;;;;2.56;100.00;98240.06;103250;1285;25257;-76
2022/12/06 05:28:54;;;;;;;59.70;30.00;;;;;;;2.57;100.00;98237.84;103074;1302;138571;-76
2022/12/06 05:31:22;;;;;;;55.10;27.80;;;;;;;2.56;100.00;98236.25;103523;1301;22962;-76
2022/12/06 05:33:49;;;;;;;61.40;28.60;;;;;;;2.54;100.00;98229.33;103165;1309;22254;-76
2022/12/06 05:36:23;;;;;;;55.80;27.90;;;;;;;2.54;100.00;98227.97;103124;1309;139011;-76
2022/12/06 05:38:51;;;;;;;60.60;28.70;;;;;;;2.55;100.00;98225.91;103272;1301;24278;-76
2022/12/06 05:41:20;;;;;;;55.40;26.20;;;;;;;2.56;100.00;98221.11;103093;1296;138625;-76
2022/12/06 05:43:47;;;;;;;55.70;28.00;;;;;;;2.56;100.00;98218.51;103202;1303;22592;-76
2022/12/06 05:46:14;;;;;;;58.80;27.30;;;;;;;2.54;100.00;98213.91;103144;1310;22487;-76
2022/12/06 05:48:40;;;;;;;58.60;27.80;;;;;;;2.53;100.00;98210.02;103520;1302;138396;-76
2022/12/06 05:51:07;;;;;;;54.50;25.90;;;;;;;2.54;100.00;98199.20;103551;1295;22909;-76
2022/12/06 05:53:34;;;;;;;50.90;26.10;;;;;;;2.55;100.00;98195.97;103212;1285;139099;-76
2022/12/06 05:56:11;;;;;;;50.60;25.60;;;;;;;2.56;100.00;98196.34;103465;1310;25271;-76
2022/12/06 05:58:38;;;;;;;50.00;25.60;;;;;;;2.58;100.00;98189.36;103315;1302;22587;-76
2022/12/06 06:01:07;;;;;;;53.60;26.60;;;;;;;2.58;100.00;98188.98;103409;1288;22567;-76
2022/12/06 06:03:34;;;;;;;48.40;25.50;;;;;;;2.59;100.00;98189.95;103279;1301;22939;-75
2022/12/06 06:06:02;;;;;;;48.10;25.90;;;;;;;2.61;100.00;98189.13;103215;1288;138844;-75
2022/12/06 06:08:30;;;;;;;49.90;25.60;;;;;;;2.62;100.00;98191.79;103362;1310;22480;-76
2022/12/06 06:10:57;;;;;;;55.80;27.80;;;;;;;2.63;100.00;98192.94;103116;1310;138790;-75
2022/12/06 06:13:24;;;;;;;55.70;28.20;;;;;;;2.65;100.00;98188.16;103647;1287;22608;-75
2022/12/06 06:15:51;;;;;;;52.40;26.20;;;;;;;2.67;100.00;98191.67;103709;1286;22464;-75
2022/12/06 06:18:19;;;;;;;54.60;26.90;;;;;;;2.69;100.00;98191.44;103821;1296;138433;-75
2022/12/06 06:20:55;;;;;;;56.70;28.50;;;;;;;2.70;100.00;98189.57;103163;1310;24246;-75
2022/12/06 06:23:23;;;;;;;54.50;27.80;;;;;;;2.70;100.00;98190.40;103056;1294;138545;-75
2022/12/06 06:25:50;;;;;;;51.30;27.30;;;;;;;2.71;100.00;98195.09;103538;1301;22513;-75
2022/12/06 06:28:17;;;;;;;52.70;28.10;;;;;;;2.70;100.00;98192.02;103696;1279;25163;-75
2022/12/06 06:30:45;;;;;;;50.60;26.60;;;;;;;2.72;100.00;98196.70;103455;1295;138820;-75
2022/12/06 06:33:13;;;;;;;49.80;25.60;;;;;;;2.72;100.00;98201.87;103369;1302;22461;-75
2022/12/06 06:35:41;;;;;;;51.00;26.30;;;;;;;2.71;100.00;98201.29;103807;1309;138700;-75
2022/12/06 06:38:08;;;;;;;47.60;24.80;;;;;;;2.72;100.00;98198.08;104379;1305;22487;-75
2022/12/06 06:40:35;;;;;;;47.40;24.20;;;;;;;2.74;100.00;98193.73;104433;1289;22205;-75
2022/12/06 06:43:16;;;;;;;49.90;25.70;;;;;;;2.75;100.00;98194.41;104334;1310;138975;-75
2022/12/06 06:45:50;;;;;;;47.10;24.60;;;;;;;2.76;100.00;98195.77;104227;1281;22489;-75
2022/12/06 06:48:17;;;;;;;47.40;25.80;;;;;;;2.78;100.00;98189.98;104322;1295;138653;-75
2022/12/06 06:50:45;;;;;;;49.60;26.60;;;;;;;2.78;100.00;98187.61;103517;1288;25596;-75
2022/12/06 06:53:12;;;;;;;48.80;25.40;;;;;;;2.79;100.00;98183.29;103061;1291;138653;-75
2022/12/06 06:55:42;;;;;;;45.70;25.10;;;;;;;2.79;100.00;98187.46;103219;1289;25343;-75
2022/12/06 06:58:10;;;;;;;47.10;25.80;;;;;;;2.80;100.00;98182.98;103259;1313;25215;-75
2022/12/06 07:00:37;;;;;;;50.00;26.70;;;;;;;2.81;100.00;98179.31;104042;1286;138473;-75
2022/12/06 07:03:04;;;;;;;49.50;25.50;;;;;;;2.80;100.00;98178.86;104335;1288;23114;-75
2022/12/06 07:05:31;;;;;;;44.80;24.70;;;;;;;2.80;100.00;98178.65;104005;1288;138835;-75
2022/12/06 07:07:57;;;;;;;41.10;22.00;;;;;;;2.81;100.00;98173.70;103109;1299;25317;-75
2022/12/06 07:10:26;;;;;;;44.90;25.80;;;;;;;2.86;100.00;98165.97;103515;1281;26781;-75
2022/12/06 07:12:55;;;;;;;48.60;25.60;;;;;;;2.91;100.00;98162.26;103388;1290;138954;-75
2022/12/06 07:15:22;;;;;;;51.00;26.60;;;;;;;2.91;100.00;98157.29;103278;1295;23317;-75
2022/12/06 07:17:50;;;;;;;44.60;25.60;;;;;;;2.90;99.91;98157.29;103156;1298;138852;-75
2022/12/06 07:20:17;;;;;;;43.00;24.70;;;;;;;2.88;99.84;98154.55;103502;1294;24430;-74
2022/12/06 07:22:45;;;;;;;45.00;25.30;;;;;;;2.88;100.00;98155.67;103370;1302;139287;-75
2022/12/06 07:25:12;;;;;;;46.70;25.80;;;;;;;2.88;99.93;98147.48;104003;1302;22919;-75
2022/12/06 07:27:39;;;;;;;49.40;26.60;;;;;;;2.88;100.00;98146.53;103459;1310;22491;-75
2022/12/06 07:30:07;;;;;;;49.00;27.10;;;;;;;2.89;100.00;98153.40;104057;1285;139156;-75
2022/12/06 07:32:35;;;;;;;46.10;25.20;;;;;;;2.89;99.96;98145.54;104332;1299;23956;-75
2022/12/06 07:35:03;;;;;;;43.60;24.20;;;;;;;2.87;99.88;98150.04;104425;1289;139213;-76
2022/12/06 07:37:30;;;;;;;38.70;22.00;;;;;;;2.87;100.00;98152.39;104726;1286;22652;-75
2022/12/06 07:39:58;;;;;;;37.10;22.20;;;;;;;2.88;99.97;98154.48;103695;1286;22504;-75
2022/12/06 07:45:13;;;;;;;40.20;21.70;;;;;;;2.90;100.00;98162.80;104155;1281;22585;-75
2022/12/06 07:47:42;;;;;;;39.30;21.20;;;;;;;2.89;99.95;98158.78;103212;1310;138915;-75
2022/12/06 07:50:13;;;;;;;41.40;22.40;;;;;;;2.89;99.95;98157.88;103731;1304;22407;-75
2022/12/06 07:52:40;;;;;;;35.10;20.80;;;;;;;2.89;99.94;98158.98;103398;1291;22488;-75
2022/12/06 07:55:09;;;;;;;36.20;20.50;;;;;;;2.88;99.86;98153.48;103455;1286;138607;-75
2022/12/06 07:57:37;;;;;;;32.00;19.00;;;;;;;2.88;99.87;98156.46;104972;1292;25451;-76
2022/12/06 08:00:06;;;;;;;30.00;18.00;;;;;;;2.87;99.88;98155.38;103147;1310;140669;-75
2022/12/06 08:02:39;;;;;;;37.40;20.80;;;;;;;2.87;99.96;98139.61;104893;1298;25382;-75
2022/12/06 08:05:06;;;;;;;38.90;20.50;;;;;;;2.86;99.85;98127.19;103117;1310;138576;-75
2022/12/06 08:07:33;;;;;;;37.10;20.20;;;;;;;2.87;99.91;98126.42;103277;1310;22495;-75
2022/12/06 08:10:01;;;;;;;35.90;22.70;;;;;;;2.88;99.99;98126.64;103216;1286;25257;-75
2022/12/06 08:12:31;;;;;;;34.40;19.60;;;;;;;2.91;100.00;98123.87;103082;1288;138353;-75
2022/12/06 08:14:58;;;;;;;33.80;19.60;;;;;;;2.93;99.89;98125.39;103511;1290;22668;-75
2022/12/06 08:17:25;;;;;;;36.50;20.70;;;;;;;2.95;99.99;98123.76;103138;1302;139068;-75
2022/12/06 08:19:52;;;;;;;32.50;20.60;;;;;;;2.97;100.00;98126.85;103182;1296;22494;-75
2022/12/06 08:22:19;;;;;;;33.40;20.50;;;;;;;2.99;99.95;98120.67;103403;1286;77363;-76
2022/12/06 08:24:46;;;;;;;36.50;20.90;;;;;;;3.00;99.94;98116.42;104087;1295;138179;-75
2022/12/06 08:27:14;;;;;;;32.80;18.80;;;;;;;3.01;99.78;98107.98;103371;1304;23028;-75
2022/12/06 08:29:40;;;;;;;33.10;18.50;;;;;;;3.04;99.78;98109.77;103109;1294;138249;-75
2022/12/06 08:32:07;;;;;;;31.70;18.20;;;;;;;3.05;99.88;98109.77;103197;1284;24327;-75
2022/12/06 08:34:34;;;;;;;33.20;18.90;;;;;;;3.07;99.79;98113.29;103375;1287;25343;-75
2022/12/06 08:37:01;;;;;;;27.20;16.80;;;;;;;3.09;99.99;98110.67;103228;1302;139282;-75
2022/12/06 08:39:28;;;;;;;25.80;16.30;;;;;;;3.10;99.87;98115.94;103484;1286;22739;-76
2022/12/06 08:41:58;;;;;;;28.50;16.60;;;;;;;3.11;99.68;98120.33;103081;1304;138242;-76
2022/12/06 08:44:27;;;;;;;29.70;17.20;;;;;;;3.11;99.71;98119.10;103149;1296;22611;-75
2022/12/06 08:46:55;;;;;;;29.40;17.20;;;;;;;3.11;99.74;98125.50;103731;1288;140629;-75
2022/12/06 08:49:24;;;;;;;29.50;18.20;;;;;;;3.11;99.66;98130.27;103172;1300;24772;-76
2022/12/06 08:51:52;;;;;;;27.90;17.20;;;;;;;3.09;99.42;98133.36;103353;1295;23577;-76
2022/12/06 08:54:22;;;;;;;30.10;18.10;;;;;;;3.07;99.30;98136.67;102961;1297;138775;-75
2022/12/06 08:56:50;;;;;;;29.10;18.70;;;;;;;3.04;99.33;98136.63;103367;1286;23395;-75
2022/12/06 08:59:18;;;;;;;29.20;17.30;;;;;;;3.05;99.47;98132.20;103212;1310;138583;-75
2022/12/06 09:01:46;;;;;;;27.50;17.10;;;;;;;3.06;99.64;98129.46;103164;1310;22485;-75
2022/12/06 09:04:13;;;;;;;28.30;17.60;;;;;;;3.07;99.71;98131.79;103074;1293;22708;-75
2022/12/06 09:06:42;;;;;;;28.20;18.40;;;;;;;3.08;99.86;98122.64;103058;1294;138469;-75
2022/12/06 09:09:11;;;;;;;28.90;17.70;;;;;;;3.11;99.83;98123.73;103454;1296;22973;-75
2022/12/06 09:11:39;;;;;;;29.60;17.20;;;;;;;3.12;99.56;98122.95;103306;1295;138287;-75
2022/12/06 09:14:08;;;;;;;31.70;18.00;;;;;;;3.12;99.50;98120.92;103272;1302;22493;-75
2022/12/06 09:16:35;;;;;;;32.20;18.60;;;;;;;3.11;99.19;98121.11;103010;1287;22469;-75
2022/12/06 09:19:02;;;;;;;30.90;18.30;;;;;;;3.09;99.12;98117.89;103090;1310;138043;-75
2022/12/06 09:21:32;;;;;;;25.90;16.50;;;;;;;3.08;99.17;98116.11;103141;1297;22592;-75
2022/12/06 09:23:59;;;;;;;29.60;18.10;;;;;;;3.06;99.09;98115.06;103039;1310;138492;-75
2022/12/06 09:26:27;;;;;;;30.00;18.60;;;;;;;3.05;99.30;98113.20;103129;1288;25351;-75
2022/12/06 09:28:55;;;;;;;27.40;18.40;;;;;;;3.04;99.31;98116.02;103917;1286;138420;-75
2022/12/06 09:31:22;;;;;;;31.00;18.30;;;;;;;3.04;99.65;98111.66;103430;1294;22947;-75
2022/12/06 09:33:50;;;;;;;30.80;18.50;;;;;;;3.07;99.79;98114.41;103305;1295;22996;-76
2022/12/06 09:36:27;;;;;;;27.60;18.10;;;;;;;3.09;99.75;98113.79;103111;1310;139506;-75
2022/12/06 09:39:02;;;;;;;27.40;17.40;;;;;;;3.10;99.54;98116.35;103051;1310;22535;-75
2022/12/06 09:41:38;;;;;;;28.60;16.60;;;;;;;3.09;99.61;98114.25;103019;1288;138483;-75
2022/12/06 09:44:14;;;;;;;29.60;18.30;;;;;;;3.10;99.44;98108.04;102982;1297;22494;-75
2022/12/06 09:46:53;;;;;;;33.70;19.50;;;;;;;3.11;99.35;98106.55;103202;1305;22876;-76
2022/12/06 09:49:31;;;;;;;33.90;19.50;;;;;;;3.10;99.15;98102.66;103271;1292;24466;-76
2022/12/06 09:52:23;;;;;;;30.60;19.30;;;;;;;3.09;99.21;98102.50;103162;1286;25293;-76
2022/12/06 09:55:06;;;;;;;35.50;19.60;;;;;;;3.09;99.30;98092.35;103245;1292;138185;-75
2022/12/06 09:57:57;;;;;;;32.10;19.20;;;;;;;3.10;99.09;98088.55;103022;1310;22478;-75
2022/12/06 10:00:31;;;;;;;28.90;18.80;;;;;;;3.08;98.87;98077.29;102927;1310;138572;-75
2022/12/06 10:03:35;;;;;;;28.10;18.30;;;;;;;3.08;98.74;98072.02;103111;1280;22484;-75
2022/12/06 10:06:15;;;;;;;29.80;19.20;;;;;;;3.05;98.77;98069.83;102898;1285;140073;-76
2022/12/06 10:09:03;;;;;;;25.70;15.00;;;;;;;3.03;98.88;98070.73;103339;1278;23029;-76
2022/12/06 10:11:48;;;;;;;26.80;16.50;;;;;;;2.97;98.52;98068.91;103067;1307;138962;-75
2022/12/06 10:14:30;;;;;;;26.60;15.50;;;;;;;2.92;98.75;98062.09;103257;1294;22523;-75
2022/12/06 10:17:26;;;;;;;29.90;17.50;;;;;;;2.87;98.79;98062.91;103069;1288;138417;-73
2022/12/06 10:20:19;;;;;;;26.30;17.10;;;;;;;2.84;99.06;98056.24;103286;1308;22505;-74
2022/12/06 10:22:46;;;;;;;25.90;15.90;;;;;;;2.85;99.58;98054.17;103227;1305;25237;-77
2022/12/06 10:25:29;;;;;;;26.80;16.90;;;;;;;2.91;99.99;98052.20;102903;1310;138078;-75
2022/12/06 10:28:07;;;;;;;23.90;14.80;;;;;;;2.92;99.57;98053.11;103092;1294;22941;-75
2022/12/06 10:30:43;;;;;;;23.80;15.10;;;;;;;2.89;99.13;98049.75;103690;1294;138505;-75
2022/12/06 10:33:36;;;;;;;27.10;15.90;;;;;;;2.87;99.08;98051.81;103242;1296;24448;-75
2022/12/06 10:36:08;;;;;;;29.10;18.10;;;;;;;2.84;99.52;98053.35;103434;1286;139525;-75
2022/12/06 10:38:48;;;;;;;32.00;17.90;;;;;;;2.86;99.79;98054.23;103540;1290;25369;-75
2022/12/06 10:41:25;;;;;;;29.20;18.90;;;;;;;2.89;100.00;98051.20;103186;1311;138462;-75
2022/12/06 10:44:17;;;;;;;30.20;18.40;;;;;;;2.91;99.98;98051.74;103492;1277;22490;-75
2022/12/06 10:47:03;;;;;;;28.90;17.60;;;;;;;2.94;100.00;98044.38;103446;1280;25181;-75
2022/12/06 10:49:40;;;;;;;30.60;18.20;;;;;;;2.97;100.00;98041.77;103013;1312;24382;-75
2022/12/06 10:52:47;;;;;;;25.00;16.70;;;;;;;3.00;100.00;98038.50;103167;1286;25576;-75
2022/12/06 10:55:52;;;;;;;27.50;17.10;;;;;;;3.05;100.00;98029.85;102989;1305;138385;-75
2022/12/06 10:58:36;;;;;;;28.10;17.40;;;;;;;3.10;100.00;98023.15;103031;1289;25317;-75
2022/12/06 11:01:12;;;;;;;24.70;16.00;;;;;;;3.14;100.00;98027.90;103448;1287;138894;-75
2022/12/06 11:03:53;;;;;;;28.40;17.30;;;;;;;3.15;100.00;98027.61;103430;1295;22470;-75
2022/12/06 11:06:25;;;;;;;29.60;18.40;;;;;;;3.19;100.00;98025.91;103477;1279;139082;-75
2022/12/06 11:08:58;;;;;;;29.90;18.90;;;;;;;3.23;100.00;98026.88;103329;1295;22584;-75
2022/12/06 11:11:31;;;;;;;25.70;17.30;;;;;;;3.27;100.00;98028.85;103238;1289;139011;-76
2022/12/06 11:14:22;;;;;;;28.30;19.00;;;;;;;3.28;100.00;98024.26;103273;1310;24281;-76
2022/12/06 11:17:21;;;;;;;35.10;22.60;;;;;;;3.29;99.99;98021.98;103283;1303;24227;-76
2022/12/06 11:19:51;;;;;;;33.00;22.30;;;;;;;3.32;99.97;98017.91;103139;1303;22479;-76
2022/12/06 11:22:40;;;;;;;30.30;19.10;;;;;;;3.34;99.92;98016.10;103458;1310;22539;-74
2022/12/06 11:25:37;;;;;;;32.20;19.30;;;;;;;3.38;100.00;98015.63;103227;1305;139043;-75
2022/12/06 11:28:34;;;;;;;26.60;16.00;;;;;;;3.44;100.00;98017.53;103689;1294;22482;-75
2022/12/06 11:31:16;;;;;;;27.60;18.20;;;;;;;3.49;100.00;98011.13;103322;1292;138503;-76
2022/12/06 11:33:45;;;;;;;25.60;17.00;;;;;;;3.55;100.00;98004.20;103352;1295;26811;-77
2022/12/06 11:36:12;;;;;;;28.80;18.30;;;;;;;3.56;99.92;98003.12;102897;1292;138525;-76
2022/12/06 11:38:42;;;;;;;23.80;16.10;;;;;;;3.56;99.75;97998.98;104197;1295;22462;-77
2022/12/06 11:41:16;;;;;;;26.90;17.30;;;;;;;3.57;99.71;97992.81;103368;1282;138895;-76
2022/12/06 11:43:44;;;;;;;27.30;17.00;;;;;;;3.56;99.40;97991.85;102937;1286;1162828;-77
2022/12/06 11:46:12;;;;;;;27.50;17.90;;;;;;;3.54;99.06;97992.70;103460;1286;25251;-77
2022/12/06 11:48:41;;;;;;;26.70;17.40;;;;;;;3.52;99.23;97991.48;103639;1286;138796;-76
2022/12/06 11:51:23;;;;;;;28.00;17.90;;;;;;;3.50;99.15;97997.84;103176;1296;25436;-77
2022/12/06 11:53:56;;;;;;;28.20;17.40;;;;;;;3.51;99.71;97998.66;103710;1278;139106;-76
2022/12/06 11:56:26;;;;;;;32.40;19.70;;;;;;;3.53;99.94;97997.66;104943;1286;22481;-74
2022/12/06 11:59:19;;;;;;;29.20;19.00;;;;;;;3.54;99.95;97993.32;103322;1310;22492;-74